Time;durP1;ratioP1;P1;durP2;ratioP2;P2;SDS_P1;SDS_P2;PMS_P1;PMS_P2;Temp;Humidity;BMP_temperature;BMP_pressure;BME280_temperature;BME280_humidity;BME280_pressure;Samples;Min_cycle;Max_cycle;Signal;HPM_P1;HPM_P2
2022/03/26 00:00:09;;;;;;;57.57;27.90;;;11.10;99.90;;;;;;4069415;29;20328;-91
2022/03/26 00:02:10;;;;;;;63.57;28.37;;;11.10;99.90;;;;;;4070463;29;20160;-91
2022/03/26 00:04:11;;;;;;;55.13;27.73;;;11.00;99.90;;;;;;4054626;29;20189;-91
2022/03/26 00:06:12;;;;;;;57.30;27.57;;;11.00;99.90;;;;;;4054409;29;20193;-91
2022/03/26 00:08:13;;;;;;;48.20;25.73;;;10.90;99.90;;;;;;4069908;29;20187;-91
2022/03/26 00:10:14;;;;;;;52.03;25.37;;;10.80;99.90;;;;;;4054382;29;20261;-91
2022/03/26 00:12:15;;;;;;;54.37;27.33;;;10.70;99.90;;;;;;4070035;29;20191;-91
2022/03/26 00:14:16;;;;;;;49.07;26.23;;;10.70;99.90;;;;;;4054350;29;20601;-91
2022/03/26 00:16:16;;;;;;;53.73;25.93;;;10.70;99.90;;;;;;4054543;29;20304;-91
2022/03/26 00:18:18;;;;;;;57.10;25.37;;;10.70;99.90;;;;;;4054192;29;20215;-91
2022/03/26 00:20:18;;;;;;;54.97;27.27;;;10.70;99.90;;;;;;4054076;29;20185;-90
2022/03/26 00:22:19;;;;;;;54.80;26.80;;;10.70;99.90;;;;;;4054309;29;20236;-91
2022/03/26 00:24:20;;;;;;;55.23;26.53;;;10.60;99.90;;;;;;4054176;29;20181;-91
2022/03/26 00:26:21;;;;;;;53.90;26.53;;;10.50;99.90;;;;;;4069241;29;20203;-91
2022/03/26 00:28:22;;;;;;;57.93;27.77;;;10.40;99.90;;;;;;4053980;29;20185;-91
2022/03/26 00:30:23;;;;;;;51.53;26.37;;;10.40;99.90;;;;;;4070140;29;20304;-90
2022/03/26 00:32:24;;;;;;;54.40;26.47;;;10.30;99.90;;;;;;4054196;29;20200;-91
2022/03/26 00:34:24;;;;;;;49.27;26.47;;;10.20;99.90;;;;;;4053994;29;20281;-90
2022/03/26 00:36:25;;;;;;;51.47;25.23;;;10.10;99.90;;;;;;4053663;29;20209;-91
2022/03/26 00:38:26;;;;;;;55.83;26.27;;;10.00;99.90;;;;;;4085309;29;20290;-90
2022/03/26 00:40:26;;;;;;;47.43;25.23;;;9.80;99.90;;;;;;4054093;29;20320;-91
2022/03/26 00:42:27;;;;;;;50.50;25.23;;;9.80;99.90;;;;;;4053906;29;20268;-91
2022/03/26 00:44:28;;;;;;;49.40;24.53;;;9.70;99.90;;;;;;4054024;29;20637;-91
2022/03/26 00:46:29;;;;;;;45.90;25.43;;;9.70;99.90;;;;;;4069909;29;20200;-91
2022/03/26 00:48:29;;;;;;;50.67;23.83;;;9.60;99.90;;;;;;4053718;29;20200;-91
2022/03/26 00:50:30;;;;;;;51.00;25.43;;;9.60;99.90;;;;;;4053708;29;20184;-90
2022/03/26 00:52:31;;;;;;;50.53;25.63;;;9.60;99.90;;;;;;4069231;29;20664;-91
2022/03/26 00:54:32;;;;;;;53.53;25.67;;;9.60;99.90;;;;;;4069335;29;20194;-91
2022/03/26 00:56:32;;;;;;;52.80;26.63;;;9.50;99.90;;;;;;4069042;29;20204;-90
2022/03/26 00:58:33;;;;;;;54.43;26.30;;;9.40;99.90;;;;;;4053485;29;20280;-91
2022/03/26 01:00:34;;;;;;;50.90;25.07;;;9.40;99.90;;;;;;4053667;29;20184;-91
2022/03/26 01:02:35;;;;;;;51.80;25.00;;;9.40;99.90;;;;;;4053613;29;20205;-91
2022/03/26 01:04:36;;;;;;;45.00;24.47;;;9.40;99.90;;;;;;4053737;29;20260;-90
2022/03/26 01:06:37;;;;;;;51.63;25.33;;;9.40;99.90;;;;;;4053299;29;20192;-90
2022/03/26 01:08:37;;;;;;;48.47;24.67;;;9.40;99.90;;;;;;4053462;29;20578;-91
2022/03/26 01:10:38;;;;;;;57.43;25.67;;;9.30;99.90;;;;;;4052697;29;20200;-90
2022/03/26 01:12:39;;;;;;;51.93;25.30;;;9.40;99.90;;;;;;4053406;29;20217;-90
2022/03/26 01:14:39;;;;;;;50.77;26.30;;;9.40;99.90;;;;;;4053442;29;20180;-91
2022/03/26 01:16:40;;;;;;;57.77;25.50;;;9.40;99.90;;;;;;4069044;29;20731;-91
2022/03/26 01:18:41;;;;;;;58.17;25.60;;;9.50;99.90;;;;;;4069138;29;20665;-90
2022/03/26 01:20:42;;;;;;;51.27;25.33;;;9.60;99.90;;;;;;4053584;29;20654;-90
2022/03/26 01:22:43;;;;;;;59.10;25.37;;;9.60;99.90;;;;;;4068763;29;20263;-91
2022/03/26 01:24:44;;;;;;;47.10;25.03;;;9.60;99.90;;;;;;4053221;29;20177;-91
2022/03/26 01:26:44;;;;;;;51.90;24.60;;;9.60;99.90;;;;;;4068747;29;20554;-90
2022/03/26 01:28:46;;;;;;;50.83;23.70;;;9.60;99.90;;;;;;4053171;29;20188;-91
2022/03/26 01:30:46;;;;;;;49.20;24.03;;;9.60;99.90;;;;;;4053122;29;20181;-91
2022/03/26 01:32:48;;;;;;;48.63;25.43;;;9.60;99.90;;;;;;4052894;29;20753;-90
2022/03/26 01:34:49;;;;;;;51.73;25.60;;;9.70;99.90;;;;;;4052849;29;20197;-91
2022/03/26 01:36:50;;;;;;;60.03;25.33;;;9.60;99.90;;;;;;4068409;29;20199;-91
2022/03/26 01:38:51;;;;;;;54.40;26.13;;;9.70;99.90;;;;;;4052987;29;20181;-91
2022/03/26 01:40:52;;;;;;;54.97;26.77;;;9.70;99.90;;;;;;4068562;29;20201;-91
2022/03/26 01:42:52;;;;;;;59.60;25.97;;;9.60;99.90;;;;;;4053151;29;20176;-91
2022/03/26 01:44:53;;;;;;;49.27;24.37;;;9.70;99.90;;;;;;4068769;29;20180;-92
2022/03/26 01:46:54;;;;;;;64.67;25.20;;;9.70;99.90;;;;;;4052880;29;20201;-90
2022/03/26 01:48:55;;;;;;;57.00;26.93;;;9.70;99.90;;;;;;4052805;29;20221;-91
2022/03/26 01:50:56;;;;;;;47.23;25.53;;;9.70;99.90;;;;;;4068395;29;20173;-90
2022/03/26 01:52:57;;;;;;;50.67;24.77;;;9.70;99.90;;;;;;4052807;29;20204;-91
2022/03/26 01:54:58;;;;;;;56.73;25.67;;;9.60;99.90;;;;;;4068510;29;20280;-91
2022/03/26 01:56:59;;;;;;;49.97;25.70;;;9.60;99.90;;;;;;4052821;29;20200;-90
2022/03/26 01:59:01;;;;;;;53.03;24.93;;;9.50;99.90;;;;;;4053013;29;20551;-91
2022/03/26 02:01:05;;;;;;;58.10;26.47;;;9.50;99.90;;;;;;4068543;29;20196;-91
2022/03/26 02:03:07;;;;;;;48.30;25.17;;;9.50;99.90;;;;;;4052893;29;20183;-91
2022/03/26 02:05:08;;;;;;;50.40;25.37;;;9.50;99.90;;;;;;4052867;29;20184;-90
2022/03/26 02:07:09;;;;;;;52.73;25.93;;;9.50;99.90;;;;;;4068585;29;20232;-92
2022/03/26 02:09:14;;;;;;;58.27;25.23;;;9.50;99.90;;;;;;4068529;29;20218;-91
2022/03/26 02:11:15;;;;;;;48.50;24.93;;;9.40;99.90;;;;;;4053071;29;20177;-91
2022/03/26 02:13:16;;;;;;;49.87;24.43;;;9.40;99.90;;;;;;4052722;29;20575;-91
2022/03/26 02:15:17;;;;;;;49.10;26.47;;;9.40;99.90;;;;;;4068099;29;20172;-91
2022/03/26 02:17:18;;;;;;;54.10;24.27;;;9.30;99.90;;;;;;4068331;29;20385;-91
2022/03/26 02:19:20;;;;;;;51.27;26.43;;;9.30;99.90;;;;;;4052896;29;20184;-91
2022/03/26 02:21:22;;;;;;;52.30;24.47;;;9.30;99.90;;;;;;4052762;29;20281;-90
2022/03/26 02:23:23;;;;;;;48.57;24.90;;;9.30;99.90;;;;;;4055222;29;20164;-91
2022/03/26 02:25:24;;;;;;;52.60;25.60;;;9.30;99.90;;;;;;4055991;29;20279;-91
2022/03/26 02:27:26;;;;;;;45.77;25.07;;;9.30;99.90;;;;;;4071412;29;20219;-91
2022/03/26 02:29:28;;;;;;;51.33;25.17;;;9.40;99.90;;;;;;4087169;29;20207;-91
2022/03/26 02:31:29;;;;;;;56.67;26.50;;;9.40;99.90;;;;;;4055677;29;20177;-90
2022/03/26 02:33:30;;;;;;;59.70;25.73;;;9.40;99.90;;;;;;4071392;29;20218;-91
2022/03/26 02:35:30;;;;;;;55.53;25.73;;;9.40;99.90;;;;;;4055542;29;20637;-90
2022/03/26 02:37:32;;;;;;;51.53;25.80;;;9.40;99.90;;;;;;4055756;29;20550;-92
2022/03/26 02:39:33;;;;;;;47.30;25.27;;;9.40;99.90;;;;;;4071483;29;20172;-90
2022/03/26 02:41:34;;;;;;;54.93;25.00;;;9.40;99.90;;;;;;4086838;29;20659;-91
2022/03/26 02:43:35;;;;;;;51.37;25.50;;;9.50;99.90;;;;;;4055472;29;20602;-90
2022/03/26 02:45:36;;;;;;;49.67;24.73;;;9.60;99.90;;;;;;4070939;29;20168;-91
2022/03/26 02:47:36;;;;;;;49.30;25.17;;;9.60;99.90;;;;;;4055462;29;20203;-91
2022/03/26 02:49:37;;;;;;;44.60;24.20;;;9.60;99.90;;;;;;4071029;29;20183;-91
2022/03/26 02:51:39;;;;;;;52.17;26.03;;;9.60;99.90;;;;;;4055469;29;20181;-90
2022/03/26 02:53:40;;;;;;;48.27;25.17;;;9.60;99.90;;;;;;4071158;29;20211;-90
2022/03/26 02:55:40;;;;;;;52.80;25.67;;;9.50;99.90;;;;;;4055448;29;20197;-90
2022/03/26 02:57:41;;;;;;;55.60;26.87;;;9.50;99.90;;;;;;4070848;29;20271;-91
2022/03/26 02:59:42;;;;;;;49.60;25.90;;;9.40;99.90;;;;;;4070856;29;20388;-90
2022/03/26 03:01:43;;;;;;;54.43;25.53;;;9.40;99.90;;;;;;4055354;29;20184;-90
2022/03/26 03:03:44;;;;;;;61.13;26.43;;;9.40;99.90;;;;;;4071041;29;20180;-90
2022/03/26 03:05:48;;;;;;;47.40;25.23;;;9.30;99.90;;;;;;4055269;29;20283;-91
2022/03/26 03:07:50;;;;;;;49.87;25.23;;;9.30;99.90;;;;;;4055289;29;20268;-90
2022/03/26 03:09:51;;;;;;;60.83;26.53;;;9.20;99.90;;;;;;4055130;29;20229;-90
2022/03/26 03:11:52;;;;;;;49.77;25.97;;;9.20;99.90;;;;;;4055049;29;20177;-90
2022/03/26 03:13:53;;;;;;;56.60;25.37;;;9.10;99.90;;;;;;4070633;29;20295;-90
2022/03/26 03:15:53;;;;;;;54.57;25.73;;;9.00;99.90;;;;;;4070842;29;20195;-91
2022/03/26 03:17:54;;;;;;;50.93;25.93;;;9.10;99.90;;;;;;4055118;29;20184;-91
2022/03/26 03:19:55;;;;;;;54.70;26.00;;;9.10;99.90;;;;;;4055080;29;20177;-91
2022/03/26 03:21:55;;;;;;;51.90;27.10;;;9.10;99.90;;;;;;4054911;29;20192;-91
2022/03/26 03:23:56;;;;;;;54.07;25.03;;;9.00;99.90;;;;;;4070498;29;20183;-91
2022/03/26 03:25:57;;;;;;;52.87;25.77;;;8.90;99.90;;;;;;4055206;29;20781;-90
2022/03/26 03:28:01;;;;;;;53.27;25.87;;;8.80;99.90;;;;;;4055441;29;20173;-90
2022/03/26 03:30:05;;;;;;;51.27;26.40;;;8.70;99.90;;;;;;4070829;29;20268;-90
2022/03/26 03:32:06;;;;;;;56.30;25.97;;;8.70;99.90;;;;;;4070754;29;20172;-91
2022/03/26 03:34:07;;;;;;;59.70;26.83;;;8.60;99.90;;;;;;4070365;29;20673;-90
2022/03/26 03:36:07;;;;;;;52.60;27.63;;;8.50;99.90;;;;;;4055086;29;20205;-90
2022/03/26 03:38:08;;;;;;;57.47;26.77;;;8.40;99.90;;;;;;4070543;29;20224;-90
2022/03/26 03:40:10;;;;;;;53.00;26.60;;;8.40;99.90;;;;;;4055005;29;20172;-91
2022/03/26 03:42:11;;;;;;;53.03;26.60;;;8.40;99.90;;;;;;4054526;29;20294;-91
2022/03/26 03:44:12;;;;;;;61.53;26.23;;;8.50;99.90;;;;;;4070467;29;20173;-91
2022/03/26 03:46:13;;;;;;;54.73;25.77;;;8.50;99.90;;;;;;4070277;29;20208;-90
2022/03/26 03:48:13;;;;;;;49.83;25.93;;;8.50;99.90;;;;;;4054817;29;20698;-90
2022/03/26 03:50:15;;;;;;;55.47;25.80;;;8.50;99.90;;;;;;4070317;29;20188;-91
2022/03/26 03:52:17;;;;;;;50.77;26.33;;;8.50;99.90;;;;;;4054407;29;20193;-90
2022/03/26 03:54:18;;;;;;;54.07;25.80;;;8.60;99.90;;;;;;4069993;29;20613;-91
2022/03/26 03:56:19;;;;;;;59.77;26.50;;;8.50;99.90;;;;;;4054229;29;20197;-91
2022/03/26 03:58:19;;;;;;;53.87;26.03;;;8.50;99.90;;;;;;4070073;29;20181;-90
2022/03/26 04:00:20;;;;;;;46.73;25.37;;;8.50;99.90;;;;;;4054608;29;20245;-91
2022/03/26 04:02:21;;;;;;;60.20;27.70;;;8.40;99.90;;;;;;4070089;29;20176;-91
2022/03/26 04:04:22;;;;;;;50.77;26.90;;;8.40;99.90;;;;;;4070078;29;20180;-90
2022/03/26 04:06:23;;;;;;;53.57;26.93;;;8.40;99.90;;;;;;4054467;29;20201;-90
2022/03/26 04:08:24;;;;;;;51.40;26.03;;;8.40;99.90;;;;;;4054265;29;20267;-90
2022/03/26 04:10:25;;;;;;;53.10;26.37;;;8.40;99.90;;;;;;4054131;29;20246;-91
2022/03/26 04:12:25;;;;;;;58.90;26.80;;;8.40;99.90;;;;;;4085416;29;20186;-91
2022/03/26 04:14:26;;;;;;;53.87;25.27;;;8.40;99.90;;;;;;4054169;29;20216;-91
2022/03/26 04:16:27;;;;;;;66.93;27.60;;;8.40;99.90;;;;;;4054167;29;20295;-91
2022/03/26 04:18:28;;;;;;;50.03;26.40;;;8.40;99.90;;;;;;4054110;29;20177;-90
2022/03/26 04:20:29;;;;;;;55.40;27.37;;;8.40;99.90;;;;;;4069723;29;20191;-91
2022/03/26 04:22:29;;;;;;;50.63;26.00;;;8.40;99.90;;;;;;4054008;29;20173;-91
2022/03/26 04:24:30;;;;;;;51.57;25.93;;;8.30;99.90;;;;;;4054201;29;20185;-91
2022/03/26 04:26:31;;;;;;;53.47;26.53;;;8.30;99.90;;;;;;4053711;29;20274;-90
2022/03/26 04:28:31;;;;;;;52.47;25.10;;;8.20;99.90;;;;;;4054123;29;20220;-91
2022/03/26 04:30:32;;;;;;;60.23;27.27;;;8.10;99.90;;;;;;4069907;29;20176;-90
2022/03/26 04:32:34;;;;;;;51.13;26.43;;;8.00;99.90;;;;;;4054164;29;20185;-91
2022/03/26 04:34:36;;;;;;;59.83;27.20;;;7.90;99.90;;;;;;4069491;29;20212;-91
2022/03/26 04:36:37;;;;;;;54.33;27.17;;;8.00;99.90;;;;;;4055510;29;20567;-90
2022/03/26 04:38:38;;;;;;;58.17;26.63;;;7.90;99.90;;;;;;4069576;29;20239;-91
2022/03/26 04:40:39;;;;;;;54.03;26.93;;;8.00;99.90;;;;;;4069655;29;20315;-91
2022/03/26 04:42:41;;;;;;;56.00;27.17;;;8.00;99.90;;;;;;4069565;29;20172;-91
2022/03/26 04:44:42;;;;;;;54.60;27.13;;;8.00;99.90;;;;;;4069123;29;20180;-91
2022/03/26 04:46:43;;;;;;;54.90;26.40;;;8.00;99.90;;;;;;4053992;29;20203;-90
2022/03/26 04:48:45;;;;;;;50.73;26.37;;;8.10;99.90;;;;;;4053630;29;20180;-90
2022/03/26 04:50:46;;;;;;;50.10;25.30;;;8.20;99.90;;;;;;4053467;29;20173;-91
2022/03/26 04:52:48;;;;;;;53.40;26.73;;;8.30;99.90;;;;;;4053499;29;20181;-91
2022/03/26 04:54:49;;;;;;;58.33;27.37;;;8.40;99.90;;;;;;4069174;29;20195;-90
2022/03/26 04:56:49;;;;;;;55.90;28.03;;;8.40;99.90;;;;;;4068911;29;20219;-90
2022/03/26 04:58:50;;;;;;;62.37;27.77;;;8.40;99.90;;;;;;4053695;29;20669;-90
2022/03/26 05:00:51;;;;;;;55.83;26.80;;;8.50;99.90;;;;;;4053408;29;20665;-90
2022/03/26 05:02:52;;;;;;;54.53;27.33;;;8.50;99.90;;;;;;4053920;29;20263;-91
2022/03/26 05:04:52;;;;;;;61.87;27.97;;;8.50;99.90;;;;;;4069439;29;20519;-92
2022/03/26 05:06:53;;;;;;;57.10;28.03;;;8.50;99.90;;;;;;4053626;29;20236;-91
2022/03/26 05:08:54;;;;;;;58.10;26.73;;;8.50;99.90;;;;;;4069420;29;20188;-91
2022/03/26 05:10:54;;;;;;;56.80;28.10;;;8.40;99.90;;;;;;4053655;29;20193;-92
2022/03/26 05:12:57;;;;;;;53.13;27.80;;;8.40;99.90;;;;;;4069149;29;20554;-91
2022/03/26 05:14:58;;;;;;;55.30;27.97;;;8.20;99.90;;;;;;4053512;29;20271;-90
2022/03/26 05:16:59;;;;;;;52.57;26.80;;;8.10;99.90;;;;;;4053341;29;20240;-91
2022/03/26 05:19:00;;;;;;;60.47;28.27;;;8.10;99.90;;;;;;4069239;29;20176;-91
2022/03/26 05:21:01;;;;;;;60.57;27.63;;;8.00;99.90;;;;;;4069101;29;20271;-91
2022/03/26 05:23:02;;;;;;;57.17;28.10;;;8.00;99.90;;;;;;4069057;29;20168;-90
2022/03/26 05:25:03;;;;;;;63.37;28.03;;;8.00;99.90;;;;;;4068938;29;20187;-90
2022/03/26 05:27:04;;;;;;;68.30;28.40;;;8.00;99.90;;;;;;4068724;29;20191;-90
2022/03/26 05:29:05;;;;;;;56.43;26.53;;;8.10;99.90;;;;;;4068938;29;20278;-91
2022/03/26 05:31:06;;;;;;;56.70;27.70;;;8.10;99.90;;;;;;4053377;29;20180;-91
2022/03/26 05:33:07;;;;;;;57.47;26.73;;;8.00;99.90;;;;;;4068598;29;20212;-91
2022/03/26 05:35:13;;;;;;;61.10;29.67;;;8.00;99.90;;;;;;4053003;29;20291;-90
2022/03/26 05:37:14;;;;;;;59.20;27.90;;;8.00;99.90;;;;;;4053067;29;20204;-90
2022/03/26 05:39:15;;;;;;;59.77;28.73;;;8.00;99.90;;;;;;4053001;29;20658;-90
2022/03/26 05:41:16;;;;;;;61.33;28.10;;;7.90;99.90;;;;;;4068376;29;20208;-90
2022/03/26 05:43:17;;;;;;;55.63;26.70;;;7.90;99.90;;;;;;4052894;29;20228;-90
2022/03/26 05:45:19;;;;;;;63.33;26.97;;;7.90;99.90;;;;;;4052867;29;20196;-91
2022/03/26 05:47:19;;;;;;;58.27;27.73;;;7.80;99.90;;;;;;4052885;29;20177;-90
2022/03/26 05:49:21;;;;;;;50.40;27.13;;;7.80;99.90;;;;;;4068596;29;20186;-91
2022/03/26 05:51:22;;;;;;;63.60;27.83;;;7.70;99.90;;;;;;4052768;29;20269;-90
2022/03/26 05:53:22;;;;;;;62.60;28.80;;;7.70;99.90;;;;;;4052622;29;20303;-91
2022/03/26 05:55:23;;;;;;;57.63;28.20;;;7.60;99.90;;;;;;4052925;29;20232;-91
2022/03/26 05:57:24;;;;;;;60.93;28.17;;;7.60;99.90;;;;;;4067502;29;20173;-90
2022/03/26 05:59:26;;;;;;;56.60;26.80;;;7.60;99.90;;;;;;4068507;29;20180;-90
2022/03/26 06:01:27;;;;;;;60.53;28.83;;;7.70;99.90;;;;;;4052938;29;20252;-91
2022/03/26 06:03:28;;;;;;;63.50;28.20;;;7.80;99.90;;;;;;4052791;29;20181;-91
2022/03/26 06:05:29;;;;;;;54.87;26.87;;;7.80;99.90;;;;;;4083951;29;20186;-90
2022/03/26 06:07:30;;;;;;;59.77;29.50;;;7.90;99.90;;;;;;4052757;29;20642;-90
2022/03/26 06:09:30;;;;;;;50.20;27.23;;;8.00;99.90;;;;;;4052722;29;20201;-90
2022/03/26 06:11:31;;;;;;;60.50;28.07;;;8.10;99.90;;;;;;4052525;29;20264;-91
2022/03/26 06:13:32;;;;;;;56.13;27.47;;;8.10;99.90;;;;;;4053157;29;20631;-91
2022/03/26 06:15:36;;;;;;;61.53;29.23;;;8.20;99.90;;;;;;4052687;29;20184;-91
2022/03/26 06:17:37;;;;;;;57.70;28.73;;;8.30;99.90;;;;;;4084180;29;20175;-90
2022/03/26 06:19:38;;;;;;;63.77;28.13;;;8.20;99.90;;;;;;4053017;29;20180;-92
2022/03/26 06:21:39;;;;;;;58.13;26.60;;;8.10;99.90;;;;;;4052717;29;20205;-90
2022/03/26 06:23:40;;;;;;;54.33;28.93;;;8.00;99.90;;;;;;4083979;29;20549;-91
2022/03/26 06:25:40;;;;;;;61.57;28.27;;;8.10;99.90;;;;;;4052586;29;20300;-90
2022/03/26 06:27:41;;;;;;;64.87;28.13;;;8.10;99.90;;;;;;4052568;29;20543;-90
2022/03/26 06:29:42;;;;;;;65.40;28.87;;;8.10;99.90;;;;;;4052757;29;20718;-90
2022/03/26 06:31:43;;;;;;;65.80;29.20;;;8.10;99.90;;;;;;4068320;29;20220;-91
2022/03/26 06:33:44;;;;;;;56.57;27.53;;;8.10;99.90;;;;;;4068240;29;20223;-90
2022/03/26 06:35:46;;;;;;;57.20;29.33;;;8.00;99.90;;;;;;4068151;29;20653;-90
2022/03/26 06:37:46;;;;;;;62.07;29.13;;;8.00;99.90;;;;;;4068308;29;20188;-91
2022/03/26 06:39:47;;;;;;;54.17;27.67;;;8.00;99.90;;;;;;4052853;29;20734;-90
2022/03/26 06:41:48;;;;;;;52.27;28.10;;;7.90;99.90;;;;;;4052817;29;20240;-91
2022/03/26 06:43:48;;;;;;;59.77;28.93;;;8.00;99.90;;;;;;4052509;29;20656;-90
2022/03/26 06:45:50;;;;;;;59.93;28.83;;;8.10;99.90;;;;;;4068723;29;20208;-91
2022/03/26 06:47:50;;;;;;;56.77;28.37;;;8.10;99.90;;;;;;4052688;29;20656;-90
2022/03/26 06:49:51;;;;;;;64.87;30.77;;;8.20;99.90;;;;;;4052472;29;20271;-91
2022/03/26 06:51:52;;;;;;;65.23;27.77;;;8.20;99.90;;;;;;4052412;29;20176;-90
2022/03/26 06:53:52;;;;;;;64.30;29.20;;;8.40;99.90;;;;;;4068065;29;20215;-91
2022/03/26 06:55:53;;;;;;;56.43;27.77;;;8.50;99.90;;;;;;4067889;29;20204;-91
2022/03/26 06:57:54;;;;;;;63.27;28.87;;;8.60;99.90;;;;;;4068170;29;20180;-91
2022/03/26 06:59:55;;;;;;;55.87;30.33;;;8.60;99.90;;;;;;4052669;29;20181;-91
2022/03/26 07:01:55;;;;;;;57.70;28.03;;;8.70;99.90;;;;;;4052962;29;20188;-91
2022/03/26 07:03:56;;;;;;;59.40;28.93;;;8.80;99.90;;;;;;4052593;29;20233;-91
2022/03/26 07:05:57;;;;;;;62.07;29.30;;;8.90;99.90;;;;;;4052249;29;20670;-90
2022/03/26 07:07:57;;;;;;;57.53;27.53;;;9.30;99.90;;;;;;4052958;29;20181;-90
2022/03/26 07:09:58;;;;;;;64.23;27.03;;;9.70;99.90;;;;;;4056193;29;20184;-91
2022/03/26 07:11:59;;;;;;;56.63;28.37;;;10.00;99.90;;;;;;4055066;29;20196;-90
2022/03/26 07:14:00;;;;;;;62.97;29.43;;;10.00;99.90;;;;;;4070719;29;20239;-90
2022/03/26 07:16:01;;;;;;;56.43;26.77;;;10.00;99.90;;;;;;4055179;29;20228;-90
2022/03/26 07:18:01;;;;;;;52.83;27.43;;;10.10;99.90;;;;;;4055156;29;20173;-91
2022/03/26 07:20:03;;;;;;;56.27;28.63;;;10.50;99.90;;;;;;4071569;29;20251;-90
2022/03/26 07:22:04;;;;;;;52.33;27.03;;;11.00;99.90;;;;;;4055221;29;20237;-90
2022/03/26 07:24:05;;;;;;;50.57;26.57;;;11.40;99.90;;;;;;4055594;29;20242;-90
2022/03/26 07:26:06;;;;;;;50.90;26.53;;;11.80;99.90;;;;;;4055364;29;20288;-90
2022/03/26 07:28:08;;;;;;;56.10;27.87;;;12.40;99.90;;;;;;4055336;29;20703;-90
2022/03/26 07:30:10;;;;;;;48.20;27.83;;;12.70;99.90;;;;;;4055227;29;20268;-90
2022/03/26 07:32:10;;;;;;;64.47;29.77;;;12.40;99.90;;;;;;4055103;29;20177;-91
2022/03/26 07:34:12;;;;;;;54.77;27.23;;;12.30;99.90;;;;;;4070486;29;20259;-91
2022/03/26 07:36:13;;;;;;;56.93;27.60;;;12.40;99.90;;;;;;4086143;29;20187;-90
2022/03/26 07:38:13;;;;;;;58.90;29.70;;;12.80;99.90;;;;;;4055213;29;20746;-91
2022/03/26 07:40:14;;;;;;;54.93;28.27;;;12.80;99.90;;;;;;4055069;29;20185;-90
2022/03/26 07:42:15;;;;;;;45.80;25.97;;;12.70;99.90;;;;;;4055259;29;20176;-91
2022/03/26 07:44:16;;;;;;;56.80;29.27;;;12.70;99.90;;;;;;4085806;29;20171;-90
2022/03/26 07:46:18;;;;;;;56.67;29.30;;;12.70;99.90;;;;;;4056977;29;20201;-91
2022/03/26 07:48:19;;;;;;;53.77;29.70;;;12.80;99.90;;;;;;4058584;29;20181;-90
2022/03/26 07:50:19;;;;;;;54.20;28.73;;;12.90;99.90;;;;;;4055019;29;20184;-91
2022/03/26 07:52:20;;;;;;;58.73;29.50;;;13.10;99.90;;;;;;4055239;29;20213;-91
2022/03/26 07:54:21;;;;;;;55.10;28.63;;;13.40;99.90;;;;;;4069981;29;20617;-92
2022/03/26 07:56:22;;;;;;;58.40;29.87;;;13.60;99.90;;;;;;4070129;29;20236;-92
2022/03/26 07:58:22;;;;;;;66.93;30.87;;;14.00;99.90;;;;;;4054896;29;20225;-91
2022/03/26 08:00:23;;;;;;;52.47;29.57;;;14.20;99.90;;;;;;4070375;29;20275;-92
2022/03/26 08:02:24;;;;;;;54.60;29.10;;;14.60;99.90;;;;;;4070360;29;20187;-92
2022/03/26 08:04:26;;;;;;;60.60;30.60;;;14.80;99.90;;;;;;4070424;29;20176;-92
2022/03/26 08:06:26;;;;;;;54.27;29.43;;;14.90;99.90;;;;;;4057480;29;20570;-91
2022/03/26 08:08:27;;;;;;;53.00;29.33;;;14.80;99.90;;;;;;4054308;29;20219;-91
2022/03/26 08:10:28;;;;;;;52.72;30.05;;;15.00;99.90;;;;;;4072230;29;20358;-91
2022/03/26 08:12:29;;;;;;;65.57;31.30;;;15.00;99.90;;;;;;4069952;29;20191;-92
2022/03/26 08:14:30;;;;;;;55.15;29.83;;;14.90;99.90;;;;;;4070264;29;20227;-92
2022/03/26 08:16:30;;;;;;;58.92;31.25;;;15.10;99.90;;;;;;4070121;29;20192;-91
2022/03/26 08:18:31;;;;;;;56.45;30.52;;;15.20;99.90;;;;;;4070502;29;20188;-92
2022/03/26 08:20:32;;;;;;;63.88;31.45;;;15.20;99.90;;;;;;4054107;29;20196;-93
2022/03/26 08:22:34;;;;;;;58.28;30.90;;;15.30;99.90;;;;;;4070276;29;20207;-92
2022/03/26 08:24:35;;;;;;;50.83;28.58;;;15.30;99.90;;;;;;4054338;29;20173;-91
2022/03/26 08:26:36;;;;;;;55.85;30.83;;;15.20;99.90;;;;;;4069845;29;20283;-92
2022/03/26 08:28:36;;;;;;;55.38;32.13;;;15.40;99.90;;;;;;4054194;29;20245;-92
2022/03/26 08:30:39;;;;;;;59.55;29.92;;;15.40;99.90;;;;;;4054209;29;20181;-91
2022/03/26 08:32:39;;;;;;;56.85;32.45;;;14.80;99.90;;;;;;4054381;29;20181;-91
2022/03/26 08:34:40;;;;;;;61.67;32.13;;;14.40;99.90;;;;;;4058020;29;20197;-91
2022/03/26 08:36:41;;;;;;;54.10;30.33;;;14.20;99.90;;;;;;4080269;29;20259;-91
2022/03/26 08:38:46;;;;;;;59.03;31.60;;;13.90;99.90;;;;;;4065112;29;20201;-91
2022/03/26 08:40:54;;;;;;;56.53;30.47;;;14.00;99.90;;;;;;4092367;29;20171;-91
2022/03/26 08:42:56;;;;;;;62.42;31.58;;;14.30;99.90;;;;;;4059093;29;20185;-90
2022/03/26 08:44:58;;;;;;;57.47;31.13;;;14.40;99.90;;;;;;4076137;29;20204;-92
2022/03/26 08:47:04;;;;;;;61.20;31.65;;;14.60;99.90;;;;;;4073040;29;20200;-92
2022/03/26 08:49:05;;;;;;;57.72;29.80;;;14.90;99.90;;;;;;4072009;29;20200;-92
2022/03/26 08:51:06;;;;;;;57.92;31.67;;;15.10;99.90;;;;;;4058288;29;20189;-92
2022/03/26 08:53:07;;;;;;;60.47;31.10;;;15.20;99.90;;;;;;4058432;29;20177;-96
2022/03/26 08:55:08;;;;;;;58.00;28.88;;;15.10;99.90;;;;;;4073306;29;20195;-92
2022/03/26 08:57:09;;;;;;;61.10;30.38;;;15.10;99.90;;;;;;4074200;29;20204;-91
2022/03/26 08:59:09;;;;;;;64.57;31.55;;;15.20;99.90;;;;;;4055937;29;20237;-93
2022/03/26 09:01:11;;;;;;;63.38;30.45;;;15.80;99.90;;;;;;4055569;29;20650;-94
2022/03/26 09:03:12;;;;;;;58.50;29.25;;;16.40;99.90;;;;;;4071861;29;20179;-93
2022/03/26 09:05:13;;;;;;;56.85;29.60;;;16.60;99.90;;;;;;4070886;29;20168;-92
2022/03/26 09:07:14;;;;;;;59.13;30.83;;;16.70;99.90;;;;;;4057712;29;20205;-94
2022/03/26 09:09:17;;;;;;;50.50;30.42;;;16.80;99.90;;;;;;4055961;29;20177;-92
2022/03/26 09:11:18;;;;;;;64.63;31.08;;;16.70;99.90;;;;;;4089647;29;20183;-92
2022/03/26 09:13:19;;;;;;;67.05;31.30;;;16.50;99.90;;;;;;4057095;29;20201;-93
2022/03/26 09:15:22;;;;;;;62.13;32.35;;;16.20;99.90;;;;;;4071633;29;20229;-91
2022/03/26 09:17:23;;;;;;;66.47;30.30;;;16.00;99.90;;;;;;4057055;29;20173;-92
2022/03/26 09:19:43;;;;;;;59.03;31.65;;;15.90;99.90;;;;;;4071514;29;20188;-90
2022/03/26 09:21:46;;;;;;;52.38;30.17;;;16.10;99.90;;;;;;4056726;29;20177;-92
2022/03/26 09:23:47;;;;;;;54.78;30.63;;;16.00;99.90;;;;;;4071382;29;20187;-91
2022/03/26 09:25:48;;;;;;;57.15;29.48;;;16.20;99.90;;;;;;4057521;29;20625;-92
2022/03/26 09:27:48;;;;;;;56.20;30.85;;;16.20;99.90;;;;;;4087447;29;20184;-91
2022/03/26 09:29:49;;;;;;;63.72;30.92;;;16.00;99.90;;;;;;4071817;29;20180;-91
2022/03/26 09:31:50;;;;;;;53.15;31.23;;;16.70;99.90;;;;;;4052822;29;20547;-91
2022/03/26 09:33:51;;;;;;;52.70;30.23;;;16.70;99.90;;;;;;4068323;29;20264;-92
2022/03/26 09:35:52;;;;;;;53.60;29.23;;;16.70;99.90;;;;;;4067902;29;20204;-92
2022/03/26 09:37:52;;;;;;;55.50;31.20;;;16.50;99.90;;;;;;4052755;29;20252;-91
2022/03/26 09:39:54;;;;;;;54.10;30.08;;;16.30;99.90;;;;;;4068566;29;20176;-91
2022/03/26 09:41:55;;;;;;;51.65;29.27;;;16.10;99.90;;;;;;4052818;29;20177;-92
2022/03/26 09:43:57;;;;;;;59.13;31.10;;;16.10;99.90;;;;;;4068711;29;20184;-92
2022/03/26 09:45:58;;;;;;;53.35;29.80;;;16.50;99.90;;;;;;4069605;29;20204;-92
2022/03/26 09:47:59;;;;;;;57.10;31.00;;;16.60;99.90;;;;;;4069328;29;20168;-92
2022/03/26 09:50:01;;;;;;;56.13;30.00;;;17.20;99.90;;;;;;4084583;29;20209;-92
2022/03/26 09:52:05;;;;;;;59.35;29.52;;;17.60;99.90;;;;;;4068951;29;20184;-91
2022/03/26 09:54:07;;;;;;;63.80;30.33;;;17.40;99.90;;;;;;4053291;29;20248;-92
2022/03/26 09:56:11;;;;;;;51.70;31.85;;;17.20;99.90;;;;;;4053318;29;20193;-91
2022/03/26 09:58:12;;;;;;;62.42;31.92;;;17.00;99.90;;;;;;4069088;29;20177;-92
2022/03/26 10:00:14;;;;;;;60.28;30.90;;;16.70;99.90;;;;;;4069055;29;20183;-92
2022/03/26 10:02:16;;;;;;;52.58;29.10;;;16.50;99.90;;;;;;4069552;29;20227;-91
2022/03/26 10:04:19;;;;;;;54.58;29.48;;;16.50;99.90;;;;;;4069175;29;20271;-92
2022/03/26 10:06:24;;;;;;;57.50;29.42;;;16.60;99.90;;;;;;4068589;29;20200;-93
2022/03/26 10:08:25;;;;;;;50.28;29.42;;;16.70;99.90;;;;;;4053006;29;20173;-93
2022/03/26 10:10:26;;;;;;;52.40;30.75;;;16.40;99.90;;;;;;4053163;29;20590;-92
2022/03/26 10:12:28;;;;;;;53.70;29.88;;;16.20;99.90;;;;;;4084311;29;20633;-92
2022/03/26 10:14:47;;;;;;;55.85;29.45;;;16.20;99.90;;;;;;4053304;29;20715;-93
2022/03/26 10:16:50;;;;;;;64.25;30.83;;;16.50;99.90;;;;;;4068912;29;20192;-92
2022/03/26 10:18:52;;;;;;;59.45;29.95;;;16.60;99.90;;;;;;4069388;29;20188;-91